sensor_id;sensor_type;location;lat;lon;timestamp;temperature;humidity
59309;DHT22;48433;53.016;-2.260;2023-07-24T00:02:04;14.00;99.90
59309;DHT22;48433;53.016;-2.260;2023-07-24T00:04:32;14.00;99.90
59309;DHT22;48433;53.016;-2.260;2023-07-24T00:07:00;14.00;99.90
59309;DHT22;48433;53.016;-2.260;2023-07-24T00:09:28;14.00;99.90
59309;DHT22;48433;53.016;-2.260;2023-07-24T00:11:56;13.90;99.90
59309;DHT22;48433;53.016;-2.260;2023-07-24T00:14:23;13.90;99.90
59309;DHT22;48433;53.016;-2.260;2023-07-24T00:16:51;13.90;99.90
59309;DHT22;48433;53.016;-2.260;2023-07-24T00:19:18;13.90;99.90
59309;DHT22;48433;53.016;-2.260;2023-07-24T00:21:46;13.90;99.90
59309;DHT22;48433;53.016;-2.260;2023-07-24T00:24:14;13.90;99.90
59309;DHT22;48433;53.016;-2.260;2023-07-24T00:26:41;13.90;99.90
59309;DHT22;48433;53.016;-2.260;2023-07-24T00:29:09;13.80;99.90
59309;DHT22;48433;53.016;-2.260;2023-07-24T00:31:36;13.80;99.90
59309;DHT22;48433;53.016;-2.260;2023-07-24T00:34:04;13.80;99.90
59309;DHT22;48433;53.016;-2.260;2023-07-24T00:36:32;13.80;99.90
59309;DHT22;48433;53.016;-2.260;2023-07-24T00:39:00;13.80;99.90
59309;DHT22;48433;53.016;-2.260;2023-07-24T00:41:30;13.80;99.90
59309;DHT22;48433;53.016;-2.260;2023-07-24T00:43:58;13.70;99.90
59309;DHT22;48433;53.016;-2.260;2023-07-24T00:46:28;13.70;99.90
59309;DHT22;48433;53.016;-2.260;2023-07-24T00:49:02;13.70;99.90
59309;DHT22;48433;53.016;-2.260;2023-07-24T00:51:33;13.70;99.90
59309;DHT22;48433;53.016;-2.260;2023-07-24T00:54:02;13.70;99.90
59309;DHT22;48433;53.016;-2.260;2023-07-24T00:56:31;13.70;99.90
59309;DHT22;48433;53.016;-2.260;2023-07-24T00:59:00;13.60;99.90
59309;DHT22;48433;53.016;-2.260;2023-07-24T01:01:28;13.60;99.90
59309;DHT22;48433;53.016;-2.260;2023-07-24T01:03:57;13.60;99.90
59309;DHT22;48433;53.016;-2.260;2023-07-24T01:06:25;13.50;99.90
59309;DHT22;48433;53.016;-2.260;2023-07-24T01:08:53;13.50;99.90
59309;DHT22;48433;53.016;-2.260;2023-07-24T01:11:29;13.50;99.90
59309;DHT22;48433;53.016;-2.260;2023-07-24T01:14:08;13.50;99.90
59309;DHT22;48433;53.016;-2.260;2023-07-24T01:16:41;13.40;99.90
59309;DHT22;48433;53.016;-2.260;2023-07-24T01:27:43;13.40;99.90
59309;DHT22;48433;53.016;-2.260;2023-07-24T01:30:12;13.30;99.90
59309;DHT22;48433;53.016;-2.260;2023-07-24T01:32:40;13.30;99.90
59309;DHT22;48433;53.016;-2.260;2023-07-24T01:35:08;13.20;99.90
59309;DHT22;48433;53.016;-2.260;2023-07-24T01:37:36;13.20;99.90
59309;DHT22;48433;53.016;-2.260;2023-07-24T01:40:07;13.20;99.90
59309;DHT22;48433;53.016;-2.260;2023-07-24T01:42:36;13.10;99.90
59309;DHT22;48433;53.016;-2.260;2023-07-24T01:45:04;13.10;99.90
59309;DHT22;48433;53.016;-2.260;2023-07-24T01:47:32;13.10;99.90
59309;DHT22;48433;53.016;-2.260;2023-07-24T01:50:00;13.10;99.90
59309;DHT22;48433;53.016;-2.260;2023-07-24T01:52:28;13.10;99.90
59309;DHT22;48433;53.016;-2.260;2023-07-24T01:54:55;13.00;99.90
59309;DHT22;48433;53.016;-2.260;2023-07-24T01:57:23;13.00;99.90
59309;DHT22;48433;53.016;-2.260;2023-07-24T01:59:51;13.00;99.90
59309;DHT22;48433;53.016;-2.260;2023-07-24T02:02:18;13.00;99.90
59309;DHT22;48433;53.016;-2.260;2023-07-24T02:04:46;13.00;99.90
59309;DHT22;48433;53.016;-2.260;2023-07-24T02:07:14;13.00;99.90
59309;DHT22;48433;53.016;-2.260;2023-07-24T02:09:42;13.00;99.90
59309;DHT22;48433;53.016;-2.260;2023-07-24T02:12:10;13.00;99.90
59309;DHT22;48433;53.016;-2.260;2023-07-24T02:14:37;13.00;99.90
59309;DHT22;48433;53.016;-2.260;2023-07-24T02:17:05;13.00;99.90
59309;DHT22;48433;53.016;-2.260;2023-07-24T02:19:32;12.90;99.90
59309;DHT22;48433;53.016;-2.260;2023-07-24T02:22:00;12.90;99.90
59309;DHT22;48433;53.016;-2.260;2023-07-24T02:26:58;12.80;99.90
59309;DHT22;48433;53.016;-2.260;2023-07-24T02:29:26;12.90;99.90
59309;DHT22;48433;53.016;-2.260;2023-07-24T02:31:54;12.90;99.90
59309;DHT22;48433;53.016;-2.260;2023-07-24T02:34:23;12.90;99.90
59309;DHT22;48433;53.016;-2.260;2023-07-24T02:36:53;12.80;99.90
59309;DHT22;48433;53.016;-2.260;2023-07-24T02:39:21;12.80;99.90
59309;DHT22;48433;53.016;-2.260;2023-07-24T02:41:49;12.80;99.90
59309;DHT22;48433;53.016;-2.260;2023-07-24T02:44:17;12.80;99.90
59309;DHT22;48433;53.016;-2.260;2023-07-24T02:46:45;12.80;99.90
59309;DHT22;48433;53.016;-2.260;2023-07-24T02:49:12;12.80;99.90
59309;DHT22;48433;53.016;-2.260;2023-07-24T02:51:40;12.80;99.90
59309;DHT22;48433;53.016;-2.260;2023-07-24T02:54:08;12.80;99.90
59309;DHT22;48433;53.016;-2.260;2023-07-24T02:56:35;12.80;99.90
59309;DHT22;48433;53.016;-2.260;2023-07-24T02:59:03;12.80;99.90
59309;DHT22;48433;53.016;-2.260;2023-07-24T03:01:30;12.80;99.90
59309;DHT22;48433;53.016;-2.260;2023-07-24T03:03:58;12.80;99.90
59309;DHT22;48433;53.016;-2.260;2023-07-24T03:06:26;12.80;99.90
59309;DHT22;48433;53.016;-2.260;2023-07-24T03:08:54;12.80;99.90
59309;DHT22;48433;53.016;-2.260;2023-07-24T03:11:22;12.70;99.90
59309;DHT22;48433;53.016;-2.260;2023-07-24T03:13:49;12.80;99.90
59309;DHT22;48433;53.016;-2.260;2023-07-24T03:16:17;12.70;99.90
59309;DHT22;48433;53.016;-2.260;2023-07-24T03:18:47;12.80;99.90
59309;DHT22;48433;53.016;-2.260;2023-07-24T03:21:14;12.80;99.90
59309;DHT22;48433;53.016;-2.260;2023-07-24T03:26:10;12.70;99.90
59309;DHT22;48433;53.016;-2.260;2023-07-24T03:28:37;12.80;99.90
59309;DHT22;48433;53.016;-2.260;2023-07-24T03:31:05;12.80;99.90
59309;DHT22;48433;53.016;-2.260;2023-07-24T03:33:33;12.80;99.90
59309;DHT22;48433;53.016;-2.260;2023-07-24T03:36:01;12.80;99.90
59309;DHT22;48433;53.016;-2.260;2023-07-24T03:38:28;12.80;99.90
59309;DHT22;48433;53.016;-2.260;2023-07-24T03:40:56;12.80;99.90
59309;DHT22;48433;53.016;-2.260;2023-07-24T03:43:23;12.80;99.90
59309;DHT22;48433;53.016;-2.260;2023-07-24T03:45:51;12.70;99.90
59309;DHT22;48433;53.016;-2.260;2023-07-24T03:48:19;12.70;99.90
59309;DHT22;48433;53.016;-2.260;2023-07-24T03:50:47;12.70;99.90
59309;DHT22;48433;53.016;-2.260;2023-07-24T03:53:16;12.60;99.90
59309;DHT22;48433;53.016;-2.260;2023-07-24T03:55:44;12.60;99.90
59309;DHT22;48433;53.016;-2.260;2023-07-24T03:58:12;12.50;99.90
59309;DHT22;48433;53.016;-2.260;2023-07-24T04:00:39;12.50;99.90
59309;DHT22;48433;53.016;-2.260;2023-07-24T04:03:07;12.50;99.90
59309;DHT22;48433;53.016;-2.260;2023-07-24T04:05:35;12.50;99.90
59309;DHT22;48433;53.016;-2.260;2023-07-24T04:08:03;12.50;99.90
59309;DHT22;48433;53.016;-2.260;2023-07-24T04:10:31;12.50;99.90
59309;DHT22;48433;53.016;-2.260;2023-07-24T04:12:58;12.50;99.90
59309;DHT22;48433;53.016;-2.260;2023-07-24T04:15:26;12.50;99.90
59309;DHT22;48433;53.016;-2.260;2023-07-24T04:17:53;12.50;99.90
59309;DHT22;48433;53.016;-2.260;2023-07-24T04:20:21;12.40;99.90
59309;DHT22;48433;53.016;-2.260;2023-07-24T04:23:13;13.60;99.90
59309;DHT22;48433;53.016;-2.260;2023-07-24T04:25:41;12.40;99.90
59309;DHT22;48433;53.016;-2.260;2023-07-24T04:28:08;12.50;99.90
59309;DHT22;48433;53.016;-2.260;2023-07-24T04:30:36;12.50;99.90
59309;DHT22;48433;53.016;-2.260;2023-07-24T04:33:04;12.50;99.90
59309;DHT22;48433;53.016;-2.260;2023-07-24T04:35:31;12.40;99.90
59309;DHT22;48433;53.016;-2.260;2023-07-24T04:37:59;12.50;99.90
59309;DHT22;48433;53.016;-2.260;2023-07-24T04:40:26;12.50;99.90
59309;DHT22;48433;53.016;-2.260;2023-07-24T04:42:54;12.50;99.90
59309;DHT22;48433;53.016;-2.260;2023-07-24T04:45:22;12.50;99.90
59309;DHT22;48433;53.016;-2.260;2023-07-24T04:47:50;12.40;99.90
59309;DHT22;48433;53.016;-2.260;2023-07-24T04:50:18;12.40;99.90
59309;DHT22;48433;53.016;-2.260;2023-07-24T04:52:46;12.40;99.90
59309;DHT22;48433;53.016;-2.260;2023-07-24T04:55:13;12.40;99.90
59309;DHT22;48433;53.016;-2.260;2023-07-24T04:57:41;12.50;99.90
59309;DHT22;48433;53.016;-2.260;2023-07-24T05:00:09;12.40;99.90
59309;DHT22;48433;53.016;-2.260;2023-07-24T05:02:36;12.50;99.90
59309;DHT22;48433;53.016;-2.260;2023-07-24T05:05:05;12.50;99.90
59309;DHT22;48433;53.016;-2.260;2023-07-24T05:07:32;12.50;99.90
59309;DHT22;48433;53.016;-2.260;2023-07-24T05:10:00;12.50;99.90
59309;DHT22;48433;53.016;-2.260;2023-07-24T05:12:28;12.50;99.90
59309;DHT22;48433;53.016;-2.260;2023-07-24T05:14:56;12.50;99.90
59309;DHT22;48433;53.016;-2.260;2023-07-24T05:17:23;12.50;99.90
59309;DHT22;48433;53.016;-2.260;2023-07-24T05:19:51;12.50;99.90
59309;DHT22;48433;53.016;-2.260;2023-07-24T05:22:19;12.50;99.90
59309;DHT22;48433;53.016;-2.260;2023-07-24T05:24:46;12.50;99.90
59309;DHT22;48433;53.016;-2.260;2023-07-24T05:27:14;12.50;99.90
59309;DHT22;48433;53.016;-2.260;2023-07-24T05:29:43;12.50;99.90
59309;DHT22;48433;53.016;-2.260;2023-07-24T05:32:12;12.60;99.90
59309;DHT22;48433;53.016;-2.260;2023-07-24T05:34:40;12.60;99.90
59309;DHT22;48433;53.016;-2.260;2023-07-24T05:39:37;12.60;99.90
59309;DHT22;48433;53.016;-2.260;2023-07-24T05:42:05;12.60;99.90
59309;DHT22;48433;53.016;-2.260;2023-07-24T05:44:32;12.70;99.90
59309;DHT22;48433;53.016;-2.260;2023-07-24T05:47:00;12.70;99.90
59309;DHT22;48433;53.016;-2.260;2023-07-24T05:49:28;12.80;99.90
59309;DHT22;48433;53.016;-2.260;2023-07-24T05:51:55;12.70;99.90
59309;DHT22;48433;53.016;-2.260;2023-07-24T05:54:24;12.80;99.90
59309;DHT22;48433;53.016;-2.260;2023-07-24T05:56:52;12.80;99.90
59309;DHT22;48433;53.016;-2.260;2023-07-24T05:59:20;12.90;99.90
59309;DHT22;48433;53.016;-2.260;2023-07-24T06:01:47;12.90;99.90
59309;DHT22;48433;53.016;-2.260;2023-07-24T06:04:15;12.90;99.90
59309;DHT22;48433;53.016;-2.260;2023-07-24T06:06:43;13.00;99.90
59309;DHT22;48433;53.016;-2.260;2023-07-24T06:09:11;13.00;99.90
59309;DHT22;48433;53.016;-2.260;2023-07-24T06:11:38;13.10;99.90
59309;DHT22;48433;53.016;-2.260;2023-07-24T06:14:06;13.10;99.90
59309;DHT22;48433;53.016;-2.260;2023-07-24T06:16:33;13.10;99.90
59309;DHT22;48433;53.016;-2.260;2023-07-24T06:19:01;13.20;99.90
59309;DHT22;48433;53.016;-2.260;2023-07-24T06:21:29;13.20;99.90
59309;DHT22;48433;53.016;-2.260;2023-07-24T06:23:57;13.20;99.90
59309;DHT22;48433;53.016;-2.260;2023-07-24T06:26:24;13.20;99.90
59309;DHT22;48433;53.016;-2.260;2023-07-24T06:28:52;13.30;99.90
59309;DHT22;48433;53.016;-2.260;2023-07-24T06:31:20;13.30;99.90
59309;DHT22;48433;53.016;-2.260;2023-07-24T06:33:47;13.30;99.90
59309;DHT22;48433;53.016;-2.260;2023-07-24T06:36:15;13.40;99.90
59309;DHT22;48433;53.016;-2.260;2023-07-24T06:38:43;13.30;99.90
59309;DHT22;48433;53.016;-2.260;2023-07-24T06:41:11;13.40;99.90
59309;DHT22;48433;53.016;-2.260;2023-07-24T06:43:38;13.40;99.90
59309;DHT22;48433;53.016;-2.260;2023-07-24T06:46:06;13.40;99.90
59309;DHT22;48433;53.016;-2.260;2023-07-24T06:48:34;13.30;99.90
59309;DHT22;48433;53.016;-2.260;2023-07-24T06:51:01;13.40;99.90
59309;DHT22;48433;53.016;-2.260;2023-07-24T06:55:57;13.40;99.90
59309;DHT22;48433;53.016;-2.260;2023-07-24T06:58:24;13.40;99.90
59309;DHT22;48433;53.016;-2.260;2023-07-24T07:00:53;13.40;99.90
59309;DHT22;48433;53.016;-2.260;2023-07-24T07:03:20;13.50;99.90
59309;DHT22;48433;53.016;-2.260;2023-07-24T07:05:48;13.40;99.90
59309;DHT22;48433;53.016;-2.260;2023-07-24T07:08:15;13.50;99.90
59309;DHT22;48433;53.016;-2.260;2023-07-24T07:10:43;13.50;99.90
59309;DHT22;48433;53.016;-2.260;2023-07-24T07:13:11;13.50;99.90
59309;DHT22;48433;53.016;-2.260;2023-07-24T07:15:38;13.50;99.90
59309;DHT22;48433;53.016;-2.260;2023-07-24T07:18:06;13.50;99.90
59309;DHT22;48433;53.016;-2.260;2023-07-24T07:20:33;13.50;99.90
59309;DHT22;48433;53.016;-2.260;2023-07-24T07:23:01;13.50;99.90
59309;DHT22;48433;53.016;-2.260;2023-07-24T07:25:29;13.50;99.90
59309;DHT22;48433;53.016;-2.260;2023-07-24T07:27:56;13.50;99.90
59309;DHT22;48433;53.016;-2.260;2023-07-24T07:30:24;13.50;99.90
59309;DHT22;48433;53.016;-2.260;2023-07-24T07:32:51;13.50;99.90
59309;DHT22;48433;53.016;-2.260;2023-07-24T07:35:19;13.50;99.90
59309;DHT22;48433;53.016;-2.260;2023-07-24T07:37:47;13.60;99.90
59309;DHT22;48433;53.016;-2.260;2023-07-24T07:40:14;13.60;99.90
59309;DHT22;48433;53.016;-2.260;2023-07-24T07:42:42;13.70;99.90
59309;DHT22;48433;53.016;-2.260;2023-07-24T07:45:11;13.70;99.90
59309;DHT22;48433;53.016;-2.260;2023-07-24T07:47:39;13.70;99.90
59309;DHT22;48433;53.016;-2.260;2023-07-24T07:50:06;13.70;99.90
59309;DHT22;48433;53.016;-2.260;2023-07-24T07:52:34;13.70;99.90
59309;DHT22;48433;53.016;-2.260;2023-07-24T07:55:03;13.80;99.90
59309;DHT22;48433;53.016;-2.260;2023-07-24T07:57:37;13.90;99.90
59309;DHT22;48433;53.016;-2.260;2023-07-24T08:00:05;13.90;99.90
59309;DHT22;48433;53.016;-2.260;2023-07-24T08:02:34;13.90;99.90
59309;DHT22;48433;53.016;-2.260;2023-07-24T08:05:02;14.00;99.90
59309;DHT22;48433;53.016;-2.260;2023-07-24T08:07:39;14.00;99.90
59309;DHT22;48433;53.016;-2.260;2023-07-24T08:10:07;14.00;99.90
59309;DHT22;48433;53.016;-2.260;2023-07-24T08:12:34;14.00;99.90
59309;DHT22;48433;53.016;-2.260;2023-07-24T08:15:02;13.90;99.90
59309;DHT22;48433;53.016;-2.260;2023-07-24T08:17:30;13.90;99.90
59309;DHT22;48433;53.016;-2.260;2023-07-24T08:19:58;13.80;99.90
59309;DHT22;48433;53.016;-2.260;2023-07-24T08:22:26;13.80;99.90
59309;DHT22;48433;53.016;-2.260;2023-07-24T08:24:53;13.80;99.90
59309;DHT22;48433;53.016;-2.260;2023-07-24T08:27:23;13.80;99.90
59309;DHT22;48433;53.016;-2.260;2023-07-24T08:29:51;13.80;99.90
59309;DHT22;48433;53.016;-2.260;2023-07-24T08:32:22;13.80;99.90
59309;DHT22;48433;53.016;-2.260;2023-07-24T08:34:50;13.80;99.90
59309;DHT22;48433;53.016;-2.260;2023-07-24T08:37:17;13.80;99.90
59309;DHT22;48433;53.016;-2.260;2023-07-24T08:39:45;13.90;99.90
59309;DHT22;48433;53.016;-2.260;2023-07-24T08:42:13;13.80;99.90
59309;DHT22;48433;53.016;-2.260;2023-07-24T08:44:42;13.80;99.90
59309;DHT22;48433;53.016;-2.260;2023-07-24T08:47:10;13.90;99.90
59309;DHT22;48433;53.016;-2.260;2023-07-24T08:49:42;13.90;99.90
59309;DHT22;48433;53.016;-2.260;2023-07-24T08:52:11;14.00;99.90
59309;DHT22;48433;53.016;-2.260;2023-07-24T08:54:58;14.10;99.90
59309;DHT22;48433;53.016;-2.260;2023-07-24T08:57:28;14.10;99.90
59309;DHT22;48433;53.016;-2.260;2023-07-24T08:59:55;14.30;99.90
59309;DHT22;48433;53.016;-2.260;2023-07-24T09:02:23;14.30;99.90
59309;DHT22;48433;53.016;-2.260;2023-07-24T09:04:51;14.40;99.90
59309;DHT22;48433;53.016;-2.260;2023-07-24T09:07:18;14.60;99.90
59309;DHT22;48433;53.016;-2.260;2023-07-24T09:09:47;14.80;99.90
59309;DHT22;48433;53.016;-2.260;2023-07-24T09:12:18;15.10;99.90
59309;DHT22;48433;53.016;-2.260;2023-07-24T09:14:46;15.50;99.90
59309;DHT22;48433;53.016;-2.260;2023-07-24T09:17:13;15.80;99.90
59309;DHT22;48433;53.016;-2.260;2023-07-24T09:19:41;16.00;99.90
59309;DHT22;48433;53.016;-2.260;2023-07-24T09:22:14;16.30;99.90
59309;DHT22;48433;53.016;-2.260;2023-07-24T09:24:53;16.80;99.90
59309;DHT22;48433;53.016;-2.260;2023-07-24T09:27:25;17.10;99.90
59309;DHT22;48433;53.016;-2.260;2023-07-24T09:29:55;17.40;99.90
59309;DHT22;48433;53.016;-2.260;2023-07-24T09:32:25;17.90;99.90
59309;DHT22;48433;53.016;-2.260;2023-07-24T09:34:54;18.20;99.90
59309;DHT22;48433;53.016;-2.260;2023-07-24T09:37:32;18.50;99.90
59309;DHT22;48433;53.016;-2.260;2023-07-24T09:40:03;18.70;99.90
59309;DHT22;48433;53.016;-2.260;2023-07-24T09:42:33;18.90;99.90
59309;DHT22;48433;53.016;-2.260;2023-07-24T09:45:05;19.10;99.90
59309;DHT22;48433;53.016;-2.260;2023-07-24T09:47:34;19.30;99.90
59309;DHT22;48433;53.016;-2.260;2023-07-24T09:50:23;19.50;99.90
59309;DHT22;48433;53.016;-2.260;2023-07-24T09:52:51;19.50;99.90
59309;DHT22;48433;53.016;-2.260;2023-07-24T09:55:25;19.50;99.90
59309;DHT22;48433;53.016;-2.260;2023-07-24T09:57:57;19.50;99.90
59309;DHT22;48433;53.016;-2.260;2023-07-24T10:00:26;19.50;99.90
59309;DHT22;48433;53.016;-2.260;2023-07-24T10:02:54;19.50;99.90
59309;DHT22;48433;53.016;-2.260;2023-07-24T10:05:23;19.50;99.90
59309;DHT22;48433;53.016;-2.260;2023-07-24T10:07:51;19.50;99.90
59309;DHT22;48433;53.016;-2.260;2023-07-24T10:10:20;19.40;99.90
59309;DHT22;48433;53.016;-2.260;2023-07-24T10:12:49;19.50;99.90
59309;DHT22;48433;53.016;-2.260;2023-07-24T10:15:18;19.90;99.90
59309;DHT22;48433;53.016;-2.260;2023-07-24T10:17:47;20.40;99.90
59309;DHT22;48433;53.016;-2.260;2023-07-24T10:20:16;20.80;99.90
59309;DHT22;48433;53.016;-2.260;2023-07-24T10:22:44;20.80;99.90
59309;DHT22;48433;53.016;-2.260;2023-07-24T10:25:12;21.70;99.90
59309;DHT22;48433;53.016;-2.260;2023-07-24T10:27:43;21.70;99.90
59309;DHT22;48433;53.016;-2.260;2023-07-24T10:30:11;22.00;99.90
59309;DHT22;48433;53.016;-2.260;2023-07-24T10:38:15;22.20;99.90
59309;DHT22;48433;53.016;-2.260;2023-07-24T10:40:47;22.50;99.90
59309;DHT22;48433;53.016;-2.260;2023-07-24T10:43:19;23.00;99.90
59309;DHT22;48433;53.016;-2.260;2023-07-24T10:45:51;23.10;99.90
59309;DHT22;48433;53.016;-2.260;2023-07-24T10:48:20;23.70;99.90
59309;DHT22;48433;53.016;-2.260;2023-07-24T10:50:50;24.40;99.70
59309;DHT22;48433;53.016;-2.260;2023-07-24T10:53:22;24.90;98.40
59309;DHT22;48433;53.016;-2.260;2023-07-24T10:55:51;24.90;98.40
59309;DHT22;48433;53.016;-2.260;2023-07-24T10:58:19;25.40;98.30
59309;DHT22;48433;53.016;-2.260;2023-07-24T11:00:47;25.70;97.10
59309;DHT22;48433;53.016;-2.260;2023-07-24T11:03:16;27.80;95.90
59309;DHT22;48433;53.016;-2.260;2023-07-24T11:05:46;25.00;95.60
59309;DHT22;48433;53.016;-2.260;2023-07-24T11:08:19;24.80;95.10
59309;DHT22;48433;53.016;-2.260;2023-07-24T11:10:57;25.00;95.00
59309;DHT22;48433;53.016;-2.260;2023-07-24T11:13:27;24.80;93.40
59309;DHT22;48433;53.016;-2.260;2023-07-24T11:15:55;25.80;94.40
59309;DHT22;48433;53.016;-2.260;2023-07-24T11:18:23;24.50;93.60
59309;DHT22;48433;53.016;-2.260;2023-07-24T11:21:03;24.10;93.20
59309;DHT22;48433;53.016;-2.260;2023-07-24T11:23:33;23.30;93.20
59309;DHT22;48433;53.016;-2.260;2023-07-24T11:26:01;23.30;93.40
59309;DHT22;48433;53.016;-2.260;2023-07-24T11:28:39;23.00;93.40
59309;DHT22;48433;53.016;-2.260;2023-07-24T11:31:07;21.80;94.20
59309;DHT22;48433;53.016;-2.260;2023-07-24T11:33:36;21.40;94.80
59309;DHT22;48433;53.016;-2.260;2023-07-24T11:36:05;20.90;95.80
59309;DHT22;48433;53.016;-2.260;2023-07-24T11:38:33;20.90;96.10
59309;DHT22;48433;53.016;-2.260;2023-07-24T11:41:00;20.20;97.00
59309;DHT22;48433;53.016;-2.260;2023-07-24T11:43:31;20.00;97.60
59309;DHT22;48433;53.016;-2.260;2023-07-24T11:45:58;19.80;98.10
59309;DHT22;48433;53.016;-2.260;2023-07-24T11:48:26;19.70;98.70
59309;DHT22;48433;53.016;-2.260;2023-07-24T11:50:55;19.70;98.90
59309;DHT22;48433;53.016;-2.260;2023-07-24T11:53:24;19.60;98.90
59309;DHT22;48433;53.016;-2.260;2023-07-24T11:55:53;19.70;98.80
59309;DHT22;48433;53.016;-2.260;2023-07-24T11:58:21;19.70;98.60
59309;DHT22;48433;53.016;-2.260;2023-07-24T12:00:49;19.70;98.90
59309;DHT22;48433;53.016;-2.260;2023-07-24T12:03:26;19.60;98.70
59309;DHT22;48433;53.016;-2.260;2023-07-24T12:05:55;19.60;98.90
59309;DHT22;48433;53.016;-2.260;2023-07-24T12:08:31;19.70;99.20
59309;DHT22;48433;53.016;-2.260;2023-07-24T12:10:59;19.80;99.40
59309;DHT22;48433;53.016;-2.260;2023-07-24T12:13:27;19.80;99.30
59309;DHT22;48433;53.016;-2.260;2023-07-24T12:15:55;19.80;99.00
59309;DHT22;48433;53.016;-2.260;2023-07-24T12:18:23;19.80;99.20
59309;DHT22;48433;53.016;-2.260;2023-07-24T12:20:51;19.50;99.00
59309;DHT22;48433;53.016;-2.260;2023-07-24T12:25:47;19.20;99.60
59309;DHT22;48433;53.016;-2.260;2023-07-24T12:28:15;19.20;99.90
59309;DHT22;48433;53.016;-2.260;2023-07-24T12:30:43;19.10;99.90
59309;DHT22;48433;53.016;-2.260;2023-07-24T12:33:10;19.10;99.90
59309;DHT22;48433;53.016;-2.260;2023-07-24T12:35:38;19.10;99.90
59309;DHT22;48433;53.016;-2.260;2023-07-24T12:38:05;19.10;99.90
59309;DHT22;48433;53.016;-2.260;2023-07-24T12:40:33;19.20;99.90
59309;DHT22;48433;53.016;-2.260;2023-07-24T12:43:01;19.30;99.90
59309;DHT22;48433;53.016;-2.260;2023-07-24T12:45:28;19.40;99.90
59309;DHT22;48433;53.016;-2.260;2023-07-24T12:47:56;19.60;99.80
59309;DHT22;48433;53.016;-2.260;2023-07-24T12:50:24;19.70;99.00
59309;DHT22;48433;53.016;-2.260;2023-07-24T12:52:52;19.70;98.90
59309;DHT22;48433;53.016;-2.260;2023-07-24T12:55:20;19.80;99.00
59309;DHT22;48433;53.016;-2.260;2023-07-24T12:57:47;19.70;98.70
59309;DHT22;48433;53.016;-2.260;2023-07-24T13:00:15;19.70;98.70
59309;DHT22;48433;53.016;-2.260;2023-07-24T13:02:43;19.70;98.30
59309;DHT22;48433;53.016;-2.260;2023-07-24T13:05:11;19.70;98.10
59309;DHT22;48433;53.016;-2.260;2023-07-24T13:07:39;19.40;98.00
59309;DHT22;48433;53.016;-2.260;2023-07-24T13:10:07;19.40;98.40
59309;DHT22;48433;53.016;-2.260;2023-07-24T13:12:35;19.40;98.10
59309;DHT22;48433;53.016;-2.260;2023-07-24T13:15:03;19.50;97.70
59309;DHT22;48433;53.016;-2.260;2023-07-24T13:17:31;19.70;97.70
59309;DHT22;48433;53.016;-2.260;2023-07-24T13:19:58;19.90;97.60
59309;DHT22;48433;53.016;-2.260;2023-07-24T13:22:26;20.10;96.60
59309;DHT22;48433;53.016;-2.260;2023-07-24T13:24:54;20.20;96.20
59309;DHT22;48433;53.016;-2.260;2023-07-24T13:27:22;20.40;96.00
59309;DHT22;48433;53.016;-2.260;2023-07-24T13:29:49;20.70;96.20
59309;DHT22;48433;53.016;-2.260;2023-07-24T13:32:17;20.70;96.50
59309;DHT22;48433;53.016;-2.260;2023-07-24T13:34:45;21.10;96.20
59309;DHT22;48433;53.016;-2.260;2023-07-24T13:37:12;21.90;95.20
59309;DHT22;48433;53.016;-2.260;2023-07-24T13:39:40;21.90;95.70
59309;DHT22;48433;53.016;-2.260;2023-07-24T13:42:08;22.20;94.40
59309;DHT22;48433;53.016;-2.260;2023-07-24T13:44:35;22.30;94.00
59309;DHT22;48433;53.016;-2.260;2023-07-24T13:47:03;22.20;94.20
59309;DHT22;48433;53.016;-2.260;2023-07-24T13:49:31;22.20;93.90
59309;DHT22;48433;53.016;-2.260;2023-07-24T13:51:58;22.20;94.40
59309;DHT22;48433;53.016;-2.260;2023-07-24T13:54:26;22.30;93.10
59309;DHT22;48433;53.016;-2.260;2023-07-24T13:56:54;22.20;93.10
59309;DHT22;48433;53.016;-2.260;2023-07-24T13:59:21;22.20;93.20
59309;DHT22;48433;53.016;-2.260;2023-07-24T14:01:49;22.40;92.60
59309;DHT22;48433;53.016;-2.260;2023-07-24T14:04:17;22.80;91.90
59309;DHT22;48433;53.016;-2.260;2023-07-24T14:06:44;22.90;92.20
59309;DHT22;48433;53.016;-2.260;2023-07-24T14:09:12;23.30;91.70
59309;DHT22;48433;53.016;-2.260;2023-07-24T14:11:39;23.80;90.60
59309;DHT22;48433;53.016;-2.260;2023-07-24T14:14:07;24.10;86.00
59309;DHT22;48433;53.016;-2.260;2023-07-24T14:16:35;24.20;87.00
59309;DHT22;48433;53.016;-2.260;2023-07-24T14:19:02;24.20;85.50
59309;DHT22;48433;53.016;-2.260;2023-07-24T14:21:30;24.20;85.90
59309;DHT22;48433;53.016;-2.260;2023-07-24T14:23:58;24.20;85.00
59309;DHT22;48433;53.016;-2.260;2023-07-24T14:26:25;24.30;85.90
59309;DHT22;48433;53.016;-2.260;2023-07-24T14:28:54;24.50;85.50
59309;DHT22;48433;53.016;-2.260;2023-07-24T14:31:23;24.50;82.10
59309;DHT22;48433;53.016;-2.260;2023-07-24T14:33:51;24.40;83.90
59309;DHT22;48433;53.016;-2.260;2023-07-24T14:36:19;24.40;85.10
59309;DHT22;48433;53.016;-2.260;2023-07-24T14:38:47;24.40;81.30
59309;DHT22;48433;53.016;-2.260;2023-07-24T14:41:14;24.40;81.80
59309;DHT22;48433;53.016;-2.260;2023-07-24T14:43:43;24.40;79.80
59309;DHT22;48433;53.016;-2.260;2023-07-24T14:46:10;24.50;80.60
59309;DHT22;48433;53.016;-2.260;2023-07-24T14:48:38;25.10;81.70
59309;DHT22;48433;53.016;-2.260;2023-07-24T14:51:05;25.30;81.10
59309;DHT22;48433;53.016;-2.260;2023-07-24T14:53:33;24.90;80.40
59309;DHT22;48433;53.016;-2.260;2023-07-24T14:56:01;24.90;81.40
59309;DHT22;48433;53.016;-2.260;2023-07-24T14:58:28;24.80;81.80
59309;DHT22;48433;53.016;-2.260;2023-07-24T15:00:56;24.40;81.40
59309;DHT22;48433;53.016;-2.260;2023-07-24T15:03:23;23.60;81.10
59309;DHT22;48433;53.016;-2.260;2023-07-24T15:05:51;23.50;82.00
59309;DHT22;48433;53.016;-2.260;2023-07-24T15:08:19;23.20;84.10
59309;DHT22;48433;53.016;-2.260;2023-07-24T15:10:46;24.00;85.10
59309;DHT22;48433;53.016;-2.260;2023-07-24T15:13:14;24.80;84.20
59309;DHT22;48433;53.016;-2.260;2023-07-24T15:15:42;24.80;84.90
59309;DHT22;48433;53.016;-2.260;2023-07-24T15:18:09;25.50;81.40
59309;DHT22;48433;53.016;-2.260;2023-07-24T15:20:37;25.80;80.30
59309;DHT22;48433;53.016;-2.260;2023-07-24T15:23:05;26.00;80.20
59309;DHT22;48433;53.016;-2.260;2023-07-24T15:25:36;26.20;80.60
59309;DHT22;48433;53.016;-2.260;2023-07-24T15:28:04;26.50;78.30
59309;DHT22;48433;53.016;-2.260;2023-07-24T15:30:32;26.40;75.80
59309;DHT22;48433;53.016;-2.260;2023-07-24T15:32:59;25.90;74.50
59309;DHT22;48433;53.016;-2.260;2023-07-24T15:35:27;25.40;75.30
59309;DHT22;48433;53.016;-2.260;2023-07-24T15:37:55;25.00;77.80
59309;DHT22;48433;53.016;-2.260;2023-07-24T15:40:22;24.00;80.10
59309;DHT22;48433;53.016;-2.260;2023-07-24T15:42:50;23.90;80.80
59309;DHT22;48433;53.016;-2.260;2023-07-24T15:45:17;23.10;83.70
59309;DHT22;48433;53.016;-2.260;2023-07-24T15:47:45;22.70;84.50
59309;DHT22;48433;53.016;-2.260;2023-07-24T15:50:13;22.20;85.50